createdAt,value
2022-12-23T00:01:25.851Z,18.03
2022-12-23T00:03:57.552Z,18.57
2022-12-23T00:06:27.117Z,21.17
2022-12-23T00:08:58.363Z,20.60
2022-12-23T00:11:27.849Z,22.93
2022-12-23T00:14:20.695Z,17.17
2022-12-23T00:16:49.894Z,19.67
2022-12-23T00:19:17.964Z,23.47
2022-12-23T00:21:48.428Z,25.83
2022-12-23T00:24:16.744Z,20.27
2022-12-23T00:26:44.934Z,15.77
2022-12-23T00:29:14.057Z,15.23
2022-12-23T00:31:51.392Z,20.90
2022-12-23T00:34:19.421Z,15.17
2022-12-23T00:36:48.794Z,25.67
2022-12-23T00:39:33.185Z,17.00
2022-12-23T00:42:18.733Z,19.87
2022-12-23T00:44:46.743Z,22.43
2022-12-23T00:47:36.162Z,14.83
2022-12-23T00:50:05.231Z,13.07
2022-12-23T00:52:34.625Z,15.47
2022-12-23T00:55:02.635Z,46.17
2022-12-23T00:57:30.658Z,16.97
2022-12-23T00:59:58.650Z,13.97
2022-12-23T01:02:44.224Z,13.53
2022-12-23T01:05:41.487Z,68.07
2022-12-23T01:08:12.868Z,25.70
2022-12-23T01:10:42.167Z,11.23
2022-12-23T01:13:10.100Z,11.53
2022-12-23T01:15:38.299Z,14.37
2022-12-23T01:18:06.397Z,12.10
2022-12-23T01:20:34.343Z,8.40
2022-12-23T01:23:02.259Z,7.60
2022-12-23T01:25:31.832Z,20.03
2022-12-23T01:27:59.784Z,13.87
2022-12-23T01:30:27.898Z,39.27
2022-12-23T01:32:55.777Z,23.83
2022-12-23T01:35:23.790Z,23.53
2022-12-23T01:37:51.791Z,9.30
2022-12-23T01:40:19.908Z,9.63
2022-12-23T01:42:48.325Z,11.43
2022-12-23T01:45:21.360Z,7.43
2022-12-23T01:47:53.501Z,7.60
2022-12-23T01:50:26.473Z,7.67
2022-12-23T01:53:06.991Z,7.20
2022-12-23T01:55:42.861Z,11.30
2022-12-23T01:58:14.845Z,9.87
2022-12-23T02:01:01.027Z,8.57
2022-12-23T02:03:44.721Z,9.43
2022-12-23T02:06:36.448Z,10.03
2022-12-23T02:09:20.019Z,10.50
2022-12-23T02:12:23.977Z,11.53
2022-12-23T02:15:24.627Z,16.27
2022-12-23T02:18:01.509Z,19.03
2022-12-23T02:20:49.548Z,17.00
2022-12-23T02:23:50.077Z,15.30
2022-12-23T02:27:08.426Z,18.00
2022-12-23T02:30:13.875Z,22.63
2022-12-23T02:33:11.928Z,19.73
2022-12-23T02:35:47.277Z,34.33
2022-12-23T02:38:23.977Z,32.20
2022-12-23T02:40:59.149Z,24.13
2022-12-23T02:43:36.405Z,44.93
2022-12-23T02:46:10.337Z,46.77
2022-12-23T02:48:45.275Z,31.70
2022-12-23T02:51:16.044Z,28.87
2022-12-23T02:53:48.478Z,24.40
2022-12-23T02:56:18.248Z,33.83
2022-12-23T02:58:52.250Z,26.43
2022-12-23T03:01:21.837Z,43.20
2022-12-23T03:03:52.671Z,23.27
2022-12-23T03:06:23.902Z,35.87
2022-12-23T03:08:54.544Z,43.97
2022-12-23T03:11:22.814Z,38.93
2022-12-23T03:14:07.253Z,96.70
2022-12-23T03:16:46.893Z,85.53
2022-12-23T03:19:26.052Z,30.37
2022-12-23T03:22:01.047Z,46.87
2022-12-23T03:24:37.546Z,61.60
2022-12-23T03:27:12.722Z,153.13
2022-12-23T03:29:44.709Z,88.77
2022-12-23T03:32:14.884Z,138.53
2022-12-23T03:34:47.512Z,113.33
2022-12-23T03:37:18.178Z,121.93
2022-12-23T03:39:49.977Z,112.23
2022-12-23T03:42:25.019Z,148.67
2022-12-23T03:45:28.424Z,71.60
2022-12-23T03:47:33.397Z,178.67
2022-12-23T03:50:10.186Z,128.67
2022-12-23T03:52:42.476Z,172.77
2022-12-23T03:55:16.062Z,114.87
2022-12-23T03:57:48.986Z,156.10
2022-12-23T04:00:17.144Z,140.07
2022-12-23T04:02:54.467Z,170.43
2022-12-23T04:05:28.427Z,98.93
2022-12-23T04:08:03.123Z,136.00
2022-12-23T04:10:32.378Z,177.20
2022-12-23T04:13:00.423Z,43.10
2022-12-23T04:15:28.955Z,98.57
2022-12-23T04:17:58.371Z,142.47
2022-12-23T04:20:27.723Z,71.40
2022-12-23T04:22:55.710Z,49.13
2022-12-23T04:25:23.840Z,92.23
2022-12-23T04:27:51.922Z,83.23
2022-12-23T04:30:20.384Z,106.27
2022-12-23T04:32:48.338Z,116.67
2022-12-23T04:35:16.536Z,46.23
2022-12-23T04:37:45.895Z,176.37
2022-12-23T04:40:14.382Z,48.33
2022-12-23T04:42:42.509Z,127.50
2022-12-23T04:45:11.184Z,115.23
2022-12-23T04:47:40.629Z,58.70
2022-12-23T04:50:11.775Z,63.23
2022-12-23T04:52:42.578Z,29.73
2022-12-23T04:55:12.238Z,26.47
2022-12-23T04:57:40.563Z,26.07
2022-12-23T05:00:09.693Z,92.53
2022-12-23T05:02:37.871Z,24.57
2022-12-23T05:05:06.622Z,24.50
2022-12-23T05:07:36.009Z,133.13
2022-12-23T05:10:04.110Z,34.70
2022-12-23T05:12:33.639Z,28.90
2022-12-23T05:15:02.658Z,32.50
2022-12-23T05:17:30.669Z,27.83
2022-12-23T05:19:58.661Z,38.93
2022-12-23T05:22:26.643Z,34.00
2022-12-23T05:24:54.677Z,39.53
2022-12-23T05:27:25.472Z,30.90
2022-12-23T05:29:54.755Z,25.33
2022-12-23T05:32:22.851Z,22.83
2022-12-23T05:34:50.784Z,27.10
2022-12-23T05:37:18.918Z,28.10
2022-12-23T05:39:46.926Z,23.13
2022-12-23T05:42:19.218Z,23.27
2022-12-23T05:44:47.530Z,26.23
2022-12-23T05:47:16.854Z,23.50
2022-12-23T05:49:44.863Z,21.50
2022-12-23T05:52:12.796Z,15.47
2022-12-23T05:54:40.829Z,19.73
2022-12-23T05:57:11.648Z,15.10
2022-12-23T05:59:39.696Z,20.57
2022-12-23T06:02:07.899Z,15.07
2022-12-23T06:04:37.377Z,13.33
2022-12-23T06:07:05.644Z,10.10
2022-12-23T06:09:33.626Z,12.63
2022-12-23T06:12:01.766Z,16.10
2022-12-23T06:14:29.832Z,14.63
2022-12-23T06:16:57.983Z,20.57
2022-12-23T06:19:26.128Z,24.27
2022-12-23T06:21:58.518Z,32.50
2022-12-23T06:24:26.530Z,34.83
2022-12-23T06:26:57.316Z,27.17
2022-12-23T06:29:25.662Z,36.47
2022-12-23T06:31:56.784Z,33.67
2022-12-23T06:34:24.783Z,35.23
2022-12-23T06:36:55.762Z,20.83
2022-12-23T06:39:23.745Z,27.67
2022-12-23T06:41:51.841Z,28.07
2022-12-23T06:44:20.014Z,22.23
2022-12-23T06:46:48.271Z,26.47
2022-12-23T06:49:16.267Z,26.73
2022-12-23T06:51:44.388Z,34.50
2022-12-23T06:54:13.885Z,25.17
2022-12-23T06:56:41.903Z,26.50
2022-12-23T06:59:09.902Z,27.23
2022-12-23T07:01:38.260Z,35.33
2022-12-23T07:04:06.519Z,34.10
2022-12-23T07:06:34.597Z,24.90
2022-12-23T07:09:02.737Z,34.93
2022-12-23T07:11:32.228Z,33.73
2022-12-23T07:14:00.461Z,27.53
2022-12-23T07:16:28.489Z,25.80
2022-12-23T07:18:56.506Z,29.47
2022-12-23T07:21:28.946Z,31.77
2022-12-23T07:23:58.003Z,29.50
2022-12-23T07:26:26.135Z,28.83
2022-12-23T07:28:55.487Z,26.67
2022-12-23T07:31:23.597Z,29.50
2022-12-23T07:33:51.781Z,25.43
2022-12-23T07:36:19.889Z,31.47
2022-12-23T07:38:51.274Z,27.63
2022-12-23T07:41:19.354Z,29.50
2022-12-23T07:43:47.365Z,29.63
2022-12-23T07:46:17.079Z,32.83
2022-12-23T07:48:45.228Z,23.10
2022-12-23T07:51:13.397Z,29.37
2022-12-23T07:53:41.386Z,20.37
2022-12-23T07:56:09.700Z,25.47
2022-12-23T07:58:37.790Z,19.97
2022-12-23T08:01:08.144Z,25.73
2022-12-23T08:03:38.914Z,19.00
2022-12-23T08:06:09.116Z,25.67
2022-12-23T08:08:38.405Z,20.90
2022-12-23T08:11:08.123Z,22.37
2022-12-23T08:13:37.624Z,24.87
2022-12-23T08:16:15.143Z,19.00
2022-12-23T08:18:44.547Z,18.53
2022-12-23T08:21:21.581Z,22.73
2022-12-23T08:23:50.191Z,18.73
2022-12-23T08:26:23.041Z,20.90
2022-12-23T08:28:53.554Z,20.43
2022-12-23T08:31:23.433Z,22.43
2022-12-23T08:33:55.590Z,18.60
2022-12-23T08:36:25.050Z,22.67
2022-12-23T08:38:54.882Z,20.77
2022-12-23T08:41:25.827Z,14.83
2022-12-23T08:43:54.653Z,21.13
2022-12-23T08:46:23.237Z,18.70
2022-12-23T08:48:53.490Z,18.30
2022-12-23T08:51:23.655Z,19.17
2022-12-23T08:53:57.891Z,20.03
2022-12-23T08:56:33.319Z,19.80
2022-12-23T08:59:01.513Z,20.57
2022-12-23T09:01:31.438Z,15.67
2022-12-23T09:04:03.546Z,15.37
2022-12-23T09:06:37.581Z,19.07
2022-12-23T09:09:08.648Z,16.10
2022-12-23T09:11:37.060Z,21.60
2022-12-23T09:14:05.778Z,13.53
2022-12-23T09:16:34.174Z,21.97
2022-12-23T09:19:03.789Z,20.53
2022-12-23T09:21:31.844Z,27.70
2022-12-23T09:23:59.980Z,24.73
2022-12-23T09:26:30.490Z,20.93
2022-12-23T09:28:59.064Z,21.23
2022-12-23T09:31:34.295Z,23.23
2022-12-23T09:34:06.596Z,21.37
2022-12-23T09:36:35.375Z,22.10
2022-12-23T09:39:03.554Z,20.60
2022-12-23T09:41:52.702Z,18.83
2022-12-23T09:44:43.286Z,18.63
2022-12-23T09:47:17.117Z,19.83
2022-12-23T09:49:51.768Z,22.77
2022-12-23T09:52:25.887Z,16.23
2022-12-23T09:54:55.621Z,21.10
2022-12-23T09:57:36.538Z,18.60
2022-12-23T10:00:08.636Z,22.40
2022-12-23T10:03:00.729Z,20.33
2022-12-23T10:05:48.223Z,24.73
2022-12-23T10:08:21.636Z,23.97
2022-12-23T10:10:52.478Z,16.47
2022-12-23T10:13:27.551Z,18.60
2022-12-23T10:15:59.244Z,20.23
2022-12-23T10:18:38.671Z,19.73
2022-12-23T10:21:16.322Z,20.37
2022-12-23T10:23:55.042Z,18.87
2022-12-23T10:26:25.868Z,18.13
2022-12-23T10:29:06.300Z,19.07
2022-12-23T10:31:47.623Z,16.77
2022-12-23T10:34:22.164Z,17.13
2022-12-23T10:36:58.333Z,16.93
2022-12-23T10:39:33.728Z,15.13
2022-12-23T10:42:09.569Z,13.93
2022-12-23T10:45:02.455Z,15.07
2022-12-23T10:47:41.911Z,16.37
2022-12-23T10:50:28.260Z,14.60
2022-12-23T10:53:02.052Z,11.77
2022-12-23T10:55:34.370Z,16.70
2022-12-23T10:58:08.146Z,14.40
2022-12-23T11:00:40.816Z,15.70
2022-12-23T11:03:18.501Z,19.20
2022-12-23T11:05:49.756Z,21.77
2022-12-23T11:08:21.109Z,18.93
2022-12-23T11:10:50.023Z,16.70
2022-12-23T11:13:35.809Z,16.37
2022-12-23T11:16:19.978Z,11.77
2022-12-23T11:19:01.115Z,14.07
2022-12-23T11:21:30.530Z,14.77
2022-12-23T11:24:19.134Z,12.60
2022-12-23T11:26:50.917Z,17.20
2022-12-23T11:29:23.969Z,12.20
2022-12-23T11:31:52.689Z,12.67
2022-12-23T11:34:22.709Z,11.07
2022-12-23T11:36:58.730Z,13.70
2022-12-23T11:39:35.715Z,12.67
2022-12-23T11:42:12.154Z,14.93
2022-12-23T11:44:44.249Z,14.63
2022-12-23T11:47:29.273Z,12.07
2022-12-23T11:49:58.872Z,15.60
2022-12-23T11:52:28.903Z,13.90
2022-12-23T11:55:00.011Z,14.20
2022-12-23T11:57:38.822Z,18.20
2022-12-23T12:00:09.440Z,15.57
2022-12-23T12:02:41.697Z,16.43
2022-12-23T12:05:21.295Z,19.03
2022-12-23T12:07:50.752Z,16.93
2022-12-23T12:10:23.747Z,17.80
2022-12-23T12:12:56.167Z,11.87
2022-12-23T12:15:34.833Z,11.93
2022-12-23T12:18:06.961Z,13.67
2022-12-23T12:20:40.569Z,20.13
2022-12-23T12:23:15.469Z,15.03
2022-12-23T12:25:49.771Z,16.57
2022-12-23T12:28:23.218Z,21.00
2022-12-23T12:30:57.449Z,12.00
2022-12-23T12:33:32.144Z,11.00
2022-12-23T12:36:12.287Z,12.90
2022-12-23T12:38:41.873Z,9.03
2022-12-23T12:41:17.506Z,16.13
2022-12-23T12:43:53.575Z,13.53
2022-12-23T12:46:31.681Z,17.17
2022-12-23T12:49:06.570Z,18.37
2022-12-23T12:51:41.736Z,16.77
2022-12-23T12:54:17.077Z,12.23
2022-12-23T12:56:50.925Z,17.97
2022-12-23T12:59:21.701Z,15.07
2022-12-23T13:02:11.718Z,15.90
2022-12-23T13:05:06.924Z,35.73
2022-12-23T13:07:46.013Z,19.40
2022-12-23T13:10:23.437Z,15.73
2022-12-23T13:12:59.671Z,13.33
2022-12-23T13:15:33.406Z,14.87
2022-12-23T13:18:15.166Z,16.63
2022-12-23T13:20:51.204Z,12.07
2022-12-23T13:23:45.530Z,17.47
2022-12-23T13:26:21.730Z,14.10
2022-12-23T13:29:00.803Z,15.43
2022-12-23T13:31:41.290Z,13.87
2022-12-23T13:34:25.347Z,12.67
2022-12-23T13:37:02.277Z,13.57
2022-12-23T13:39:51.178Z,15.63
2022-12-23T13:42:29.699Z,12.87
2022-12-23T13:47:40.942Z,23.93
2022-12-23T13:50:16.826Z,15.20
2022-12-23T13:53:02.978Z,10.43
2022-12-23T13:55:49.420Z,11.13
2022-12-23T13:58:22.080Z,12.30
2022-12-23T14:00:59.152Z,11.20
2022-12-23T14:03:34.068Z,10.37
2022-12-23T14:06:22.088Z,10.00
2022-12-23T14:08:52.902Z,15.57
2022-12-23T14:11:25.492Z,14.43
2022-12-23T14:13:57.593Z,13.40
2022-12-23T14:16:51.651Z,14.60
2022-12-23T14:19:42.409Z,14.20
2022-12-23T14:22:27.436Z,13.30
2022-12-23T14:25:22.039Z,11.77
2022-12-23T14:28:01.007Z,10.33
2022-12-23T14:30:40.301Z,10.80
2022-12-23T14:33:23.541Z,11.10
2022-12-23T14:35:55.255Z,10.40
2022-12-23T14:38:40.567Z,8.97
2022-12-23T14:41:47.032Z,12.97
2022-12-23T14:44:42.553Z,9.10
2022-12-23T14:47:32.486Z,9.50
2022-12-23T14:50:40.883Z,10.63
2022-12-23T14:53:27.157Z,12.20
2022-12-23T14:56:21.702Z,26.97
2022-12-23T14:59:05.157Z,11.93
2022-12-23T15:01:43.328Z,10.20
2022-12-23T15:04:19.505Z,9.77
2022-12-23T15:06:51.793Z,10.90
2022-12-23T15:09:32.948Z,10.53
2022-12-23T15:12:14.737Z,11.50
2022-12-23T15:14:51.456Z,12.47
2022-12-23T15:17:27.560Z,14.03
2022-12-23T15:20:04.761Z,11.10
2022-12-23T15:22:35.352Z,11.40
2022-12-23T15:25:06.934Z,7.67
2022-12-23T15:27:37.169Z,6.40
2022-12-23T15:30:06.177Z,4.80
2022-12-23T15:32:34.209Z,4.47
2022-12-23T15:35:06.695Z,5.53
2022-12-23T15:37:36.081Z,5.90
2022-12-23T15:40:12.796Z,4.33
2022-12-23T15:42:50.752Z,4.50
2022-12-23T15:45:35.885Z,4.10
2022-12-23T15:48:06.481Z,6.27
2022-12-23T15:50:41.914Z,5.33
2022-12-23T15:53:15.751Z,7.80
2022-12-23T15:55:43.763Z,5.40
2022-12-23T15:58:22.172Z,5.03
2022-12-23T16:00:55.311Z,4.97
2022-12-23T16:03:27.874Z,4.43
2022-12-23T16:06:11.181Z,5.10
2022-12-23T16:08:40.812Z,6.67
2022-12-23T16:11:15.522Z,5.77
2022-12-23T16:13:58.677Z,7.77
2022-12-23T16:16:37.870Z,6.90
2022-12-23T16:19:06.009Z,11.20
2022-12-23T16:21:36.370Z,5.60
2022-12-23T16:24:10.493Z,5.37
2022-12-23T16:26:41.999Z,4.80
2022-12-23T16:29:12.157Z,5.60
2022-12-23T16:31:45.724Z,5.30
2022-12-23T16:34:19.299Z,6.73
2022-12-23T16:36:47.421Z,17.47
2022-12-23T16:39:21.641Z,16.93
2022-12-23T16:41:49.748Z,10.97
2022-12-23T16:44:18.913Z,14.83
2022-12-23T16:46:51.222Z,21.40
2022-12-23T16:49:21.502Z,10.27
2022-12-23T16:51:50.222Z,10.10
2022-12-23T16:54:20.810Z,9.40
2022-12-23T16:56:49.941Z,7.20
2022-12-23T16:59:18.304Z,9.93
2022-12-23T17:01:47.595Z,10.13
2022-12-23T17:04:16.943Z,9.57
2022-12-23T17:06:46.500Z,13.03
2022-12-23T17:09:14.787Z,14.67
2022-12-23T17:11:47.827Z,17.03
2022-12-23T17:14:20.615Z,12.97
2022-12-23T17:16:49.677Z,10.33
2022-12-23T17:19:27.626Z,12.67
2022-12-23T17:22:01.440Z,12.03
2022-12-23T17:24:29.444Z,10.13
2022-12-23T17:26:59.425Z,10.43
2022-12-23T17:29:28.264Z,12.73
2022-12-23T17:31:56.419Z,16.27
2022-12-23T17:34:25.622Z,16.87
2022-12-23T17:36:53.707Z,27.50
2022-12-23T17:39:22.576Z,18.33
2022-12-23T17:41:51.073Z,22.20
2022-12-23T17:44:20.899Z,21.63
2022-12-23T17:46:49.034Z,19.97
2022-12-23T17:49:17.020Z,23.17
2022-12-23T17:51:45.255Z,22.03
2022-12-23T17:54:22.933Z,15.37
2022-12-23T17:57:10.126Z,14.43
2022-12-23T17:59:39.428Z,16.00
2022-12-23T18:02:23.000Z,16.27
2022-12-23T18:04:51.597Z,14.30
2022-12-23T18:07:20.265Z,10.63
2022-12-23T18:10:04.802Z,10.20
2022-12-23T18:12:37.213Z,10.63
2022-12-23T18:15:11.114Z,14.40
2022-12-23T18:17:40.915Z,11.87
2022-12-23T18:20:16.015Z,17.23
2022-12-23T18:22:44.213Z,12.73
2022-12-23T18:25:19.195Z,12.30
2022-12-23T18:27:47.526Z,12.10
2022-12-23T18:30:20.011Z,12.43
2022-12-23T18:32:49.933Z,9.80
2022-12-23T18:35:27.124Z,12.20
2022-12-23T18:37:55.501Z,11.50
2022-12-23T18:40:29.222Z,8.40
2022-12-23T18:43:00.601Z,10.73
2022-12-23T18:45:34.434Z,8.80
2022-12-23T18:48:04.893Z,9.50
2022-12-23T18:50:33.775Z,12.90
2022-12-23T18:53:04.887Z,19.63
2022-12-23T18:55:33.122Z,17.27
2022-12-23T18:58:04.993Z,24.87
2022-12-23T19:00:34.490Z,19.17
2022-12-23T19:03:05.652Z,16.83
2022-12-23T19:05:35.727Z,16.33
2022-12-23T19:08:03.779Z,20.27
2022-12-23T19:10:34.598Z,21.60
2022-12-23T19:13:02.599Z,18.20
2022-12-23T19:15:34.070Z,18.80
2022-12-23T19:18:02.068Z,21.60
2022-12-23T19:20:30.059Z,20.07
2022-12-23T19:22:58.062Z,17.27
2022-12-23T19:25:26.029Z,24.33
2022-12-23T19:27:56.617Z,17.33
2022-12-23T19:30:24.611Z,17.87
2022-12-23T19:32:54.017Z,16.50
2022-12-23T19:35:22.278Z,19.07
2022-12-23T19:37:53.988Z,13.63
2022-12-23T19:40:24.592Z,20.03
2022-12-23T19:42:52.714Z,9.83
2022-12-23T19:45:20.800Z,15.67
2022-12-23T19:47:48.795Z,13.40
2022-12-23T19:50:18.874Z,12.80
2022-12-23T19:52:46.789Z,13.77
2022-12-23T19:55:15.605Z,22.77
2022-12-23T19:57:48.105Z,16.70
2022-12-23T20:00:17.415Z,15.83
2022-12-23T20:02:45.367Z,14.00
2022-12-23T20:05:16.808Z,14.57
2022-12-23T20:07:46.157Z,14.07
2022-12-23T20:10:14.764Z,20.20
2022-12-23T20:12:42.754Z,10.10
2022-12-23T20:15:11.378Z,19.37
2022-12-23T20:17:39.523Z,15.30
2022-12-23T20:20:09.332Z,15.50
2022-12-23T20:22:39.991Z,12.10
2022-12-23T20:25:10.271Z,15.13
2022-12-23T20:27:38.807Z,14.57
2022-12-23T20:30:08.141Z,10.47
2022-12-23T20:32:36.042Z,13.83
2022-12-23T20:35:04.060Z,11.40
2022-12-23T20:37:32.004Z,14.27
2022-12-23T20:40:00.038Z,17.70
2022-12-23T20:42:32.358Z,15.23
2022-12-23T20:45:00.341Z,16.60
2022-12-23T20:47:28.427Z,18.27
2022-12-23T20:49:56.411Z,13.33
2022-12-23T20:52:25.558Z,15.77
2022-12-23T20:54:53.520Z,11.90
2022-12-23T20:57:21.467Z,10.90
2022-12-23T20:59:50.715Z,15.60
2022-12-23T21:02:18.780Z,9.77
2022-12-23T21:04:47.166Z,12.03
2022-12-23T21:07:15.270Z,8.93
2022-12-23T21:09:43.242Z,13.07
2022-12-23T21:12:11.447Z,14.17
2022-12-23T21:14:39.387Z,12.17
2022-12-23T21:17:08.742Z,9.63
2022-12-23T21:19:36.696Z,8.57
2022-12-23T21:22:04.642Z,10.03
2022-12-23T21:24:34.323Z,12.17
2022-12-23T21:27:04.826Z,14.63
2022-12-23T21:29:32.805Z,10.03
2022-12-23T21:32:00.840Z,14.87
2022-12-23T21:34:30.524Z,8.93
2022-12-23T21:36:58.623Z,10.20
2022-12-23T21:39:26.676Z,11.07
2022-12-23T21:41:54.684Z,10.80
2022-12-23T21:44:22.724Z,12.17
2022-12-23T21:46:55.451Z,11.40
2022-12-23T21:49:23.708Z,12.03
2022-12-23T21:51:55.289Z,9.17
2022-12-23T21:54:23.796Z,7.03
2022-12-23T21:56:51.713Z,16.53
2022-12-23T21:59:19.742Z,10.43
2022-12-23T22:01:47.764Z,13.50
2022-12-23T22:04:15.794Z,11.77
2022-12-23T22:06:44.915Z,17.83
2022-12-23T22:09:16.684Z,14.13
2022-12-23T22:11:46.681Z,14.60
2022-12-23T22:14:16.586Z,11.87
2022-12-23T22:16:44.569Z,9.90
2022-12-23T22:19:13.097Z,11.90
2022-12-23T22:21:42.874Z,12.10
2022-12-23T22:24:11.345Z,10.90
2022-12-23T22:26:46.702Z,15.73
2022-12-23T22:29:14.683Z,12.43
2022-12-23T22:31:45.956Z,16.27
2022-12-23T22:34:15.949Z,14.53
2022-12-23T22:36:44.208Z,11.13
2022-12-23T22:39:20.127Z,11.77
2022-12-23T22:41:51.754Z,12.30
2022-12-23T22:44:20.575Z,12.30
2022-12-23T22:46:48.762Z,16.30
2022-12-23T22:49:17.629Z,14.60
2022-12-23T22:51:45.938Z,13.10
2022-12-23T22:54:14.113Z,10.17
2022-12-23T22:56:42.233Z,13.80
2022-12-23T22:59:20.016Z,16.43
2022-12-23T23:01:49.450Z,13.37
2022-12-23T23:04:17.421Z,12.07
2022-12-23T23:06:45.497Z,11.43
2022-12-23T23:09:15.884Z,11.57
2022-12-23T23:11:44.453Z,9.67
2022-12-23T23:14:14.307Z,16.07
2022-12-23T23:16:42.280Z,15.30
2022-12-23T23:19:12.372Z,14.30
2022-12-23T23:21:40.457Z,12.77
2022-12-23T23:24:09.359Z,12.43
2022-12-23T23:26:37.394Z,11.90
2022-12-23T23:29:05.416Z,10.80
2022-12-23T23:31:43.541Z,13.40
2022-12-23T23:34:12.115Z,14.73
2022-12-23T23:36:40.094Z,13.20
2022-12-23T23:39:08.210Z,11.90
2022-12-23T23:41:36.210Z,12.57
2022-12-23T23:44:04.430Z,12.90
2022-12-23T23:46:34.221Z,10.93
2022-12-23T23:49:02.421Z,14.80
2022-12-23T23:51:30.503Z,11.10
2022-12-23T23:53:58.607Z,8.73
2022-12-23T23:56:28.841Z,7.83
2022-12-23T23:59:00.482Z,14.13
